Conway Springs, Kansas
Current Conditions -  °F | °C
As of 12:53 AM on Saturday 25 Oct 2014 (Local Time) from KICT Reporting Station
Haze Haze  
Wind Chill: 58°   Ceiling: Unl
Heat Index: 58°   Visibility: 5mi
Dew Point: 56°   Wind: 5mph
Humidity: 93%   Direction: 200°SSW
Pressure: 30.02"   Gusts: NA
Location:  37.39°N, 97.64°W
Report Text: KICT 250553Z 20004KT 5SM BR CLR 14/13 A3002 RMK AO2 SLP156 T01440133 10233 20144 402890128 58001
Loading
Personal Weather Stations






























Interactive Weather Map
Tropical Storm Tracking
New forecast layout! Learn more

10-Day Weather Forecast

Advertisements
Track Severe Weather on mobile